createdAt,value
2023-05-07T00:00:41.365Z,8.20
2023-05-07T00:03:09.009Z,5.20
2023-05-07T00:05:37.247Z,8.23
2023-05-07T00:08:05.178Z,6.97
2023-05-07T00:10:32.715Z,8.68
2023-05-07T00:13:00.633Z,6.28
2023-05-07T00:15:28.155Z,7.18
2023-05-07T00:17:57.921Z,9.60
2023-05-07T00:20:25.529Z,5.80
2023-05-07T00:22:53.893Z,6.75
2023-05-07T00:25:21.816Z,7.35
2023-05-07T00:27:49.261Z,5.85
2023-05-07T00:30:17.163Z,5.68
2023-05-07T00:32:46.736Z,6.50
2023-05-07T00:35:14.329Z,7.15
2023-05-07T00:37:41.942Z,4.60
2023-05-07T00:40:10.323Z,8.30
2023-05-07T00:42:38.502Z,7.20
2023-05-07T00:45:06.418Z,10.32
2023-05-07T00:47:34.047Z,7.38
2023-05-07T00:50:01.944Z,9.68
2023-05-07T00:52:30.751Z,11.65
2023-05-07T00:54:58.538Z,5.93
2023-05-07T00:57:26.652Z,8.60
2023-05-07T00:59:54.239Z,6.32
2023-05-07T01:02:21.812Z,7.47
2023-05-07T01:04:49.328Z,8.25
2023-05-07T01:07:17.240Z,7.40
2023-05-07T01:09:45.285Z,8.45
2023-05-07T01:12:13.141Z,8.88
2023-05-07T01:14:40.609Z,8.48
2023-05-07T01:17:09.794Z,6.47
2023-05-07T01:19:37.383Z,8.68
2023-05-07T01:22:09.985Z,6.55
2023-05-07T01:24:38.953Z,6.97
2023-05-07T01:27:06.685Z,8.65
2023-05-07T01:29:34.303Z,7.90
2023-05-07T01:32:03.810Z,6.53
2023-05-07T01:34:35.997Z,6.57
2023-05-07T01:37:04.017Z,6.10
2023-05-07T01:39:32.113Z,8.65
2023-05-07T01:42:00.932Z,8.90
2023-05-07T01:44:28.844Z,5.53
2023-05-07T01:46:56.857Z,8.93
2023-05-07T01:49:24.396Z,6.50
2023-05-07T01:51:52.549Z,7.72
2023-05-07T01:54:21.690Z,9.85
2023-05-07T01:56:50.103Z,9.90
2023-05-07T01:59:17.615Z,8.80
2023-05-07T02:01:45.188Z,7.60
2023-05-07T02:04:12.897Z,8.48
2023-05-07T02:06:40.650Z,6.97
2023-05-07T02:09:10.049Z,9.20
2023-05-07T02:11:37.552Z,7.60
2023-05-07T02:14:05.081Z,8.63
2023-05-07T02:16:32.613Z,8.27
2023-05-07T02:19:00.166Z,10.82
2023-05-07T02:21:29.440Z,11.32
2023-05-07T02:23:58.183Z,9.65
2023-05-07T02:26:27.058Z,11.10
2023-05-07T02:28:55.068Z,12.27
2023-05-07T02:31:22.693Z,10.63
2023-05-07T02:33:50.298Z,9.20
2023-05-07T02:36:17.932Z,10.63
2023-05-07T02:38:45.698Z,8.07
2023-05-07T02:41:13.308Z,9.90
2023-05-07T02:43:41.018Z,10.60
2023-05-07T02:46:10.208Z,10.57
2023-05-07T02:48:37.802Z,11.85
2023-05-07T02:51:06.869Z,11.82
2023-05-07T02:53:34.361Z,10.85
2023-05-07T02:56:03.054Z,11.40
2023-05-07T02:58:30.597Z,11.85
2023-05-07T03:00:58.306Z,12.13
2023-05-07T03:03:25.972Z,9.00
2023-05-07T03:05:53.462Z,10.82
2023-05-07T03:08:20.958Z,14.07
2023-05-07T03:10:48.700Z,9.40
2023-05-07T03:13:16.449Z,9.80
2023-05-07T03:15:44.160Z,11.05
2023-05-07T03:18:11.779Z,11.40
2023-05-07T03:20:39.455Z,8.85
2023-05-07T03:23:06.896Z,9.73
2023-05-07T03:25:34.742Z,7.60
2023-05-07T03:28:02.375Z,10.10
2023-05-07T03:30:29.874Z,12.88
2023-05-07T03:32:57.660Z,7.80
2023-05-07T03:35:25.484Z,8.95
2023-05-07T03:37:52.983Z,10.27
2023-05-07T03:40:20.769Z,11.73
2023-05-07T03:42:48.474Z,10.60
2023-05-07T03:45:16.583Z,8.05
2023-05-07T03:47:44.237Z,8.52
2023-05-07T03:50:12.098Z,8.20
2023-05-07T03:52:39.724Z,8.30
2023-05-07T03:55:08.615Z,8.02
2023-05-07T03:57:36.258Z,7.03
2023-05-07T04:00:05.634Z,8.80
2023-05-07T04:02:34.620Z,7.63
2023-05-07T04:05:02.448Z,8.68
2023-05-07T04:07:29.910Z,8.23
2023-05-07T04:09:57.383Z,10.65
2023-05-07T04:12:24.925Z,8.30
2023-05-07T04:14:52.420Z,9.40
2023-05-07T04:17:19.896Z,9.43
2023-05-07T04:19:48.045Z,10.55
2023-05-07T04:22:15.727Z,11.38
2023-05-07T04:24:43.237Z,9.43
2023-05-07T04:27:10.763Z,10.05
2023-05-07T04:29:38.299Z,9.63
2023-05-07T04:32:06.220Z,9.75
2023-05-07T04:34:33.905Z,7.85
2023-05-07T04:37:01.868Z,7.45
2023-05-07T04:39:29.451Z,9.60
2023-05-07T04:41:56.980Z,8.35
2023-05-07T04:44:24.521Z,8.30
2023-05-07T04:46:52.035Z,8.85
2023-05-07T04:49:19.552Z,11.15
2023-05-07T04:51:47.015Z,8.07
2023-05-07T04:54:14.465Z,11.25
2023-05-07T04:56:42.656Z,9.95
2023-05-07T04:59:10.115Z,7.25
2023-05-07T05:01:37.732Z,8.52
2023-05-07T05:04:05.541Z,7.95
2023-05-07T05:06:33.357Z,8.20
2023-05-07T05:09:00.934Z,10.00
2023-05-07T05:11:28.629Z,8.52
2023-05-07T05:13:56.171Z,11.02
2023-05-07T05:16:23.805Z,9.95
2023-05-07T05:18:53.325Z,8.20
2023-05-07T05:21:21.069Z,11.63
2023-05-07T05:23:48.640Z,10.43
2023-05-07T05:26:16.316Z,8.90
2023-05-07T05:28:43.857Z,9.32
2023-05-07T05:31:11.771Z,8.25
2023-05-07T05:33:39.550Z,9.43
2023-05-07T05:36:07.847Z,9.82
2023-05-07T05:38:35.581Z,11.40
2023-05-07T05:41:03.327Z,13.02
2023-05-07T05:43:31.157Z,11.90
2023-05-07T05:45:58.961Z,9.50
2023-05-07T05:48:27.130Z,11.35
2023-05-07T05:50:54.600Z,8.88
2023-05-07T05:53:22.093Z,10.07
2023-05-07T05:55:50.635Z,11.52
2023-05-07T05:58:18.158Z,9.60
2023-05-07T06:00:49.502Z,9.52
2023-05-07T06:03:17.555Z,9.50
2023-05-07T06:05:46.537Z,10.40
2023-05-07T06:08:15.041Z,12.02
2023-05-07T06:10:42.941Z,9.45
2023-05-07T06:13:10.614Z,9.90
2023-05-07T06:15:38.200Z,13.38
2023-05-07T06:18:05.936Z,14.27
2023-05-07T06:20:33.510Z,11.60
2023-05-07T06:23:01.193Z,12.63
2023-05-07T06:25:28.926Z,12.35
2023-05-07T06:27:56.392Z,12.00
2023-05-07T06:30:23.990Z,10.88
2023-05-07T06:32:51.614Z,11.00
2023-05-07T06:35:19.177Z,13.32
2023-05-07T06:37:46.814Z,12.98
2023-05-07T06:40:14.369Z,11.05
2023-05-07T06:42:41.868Z,12.65
2023-05-07T06:45:09.967Z,13.40
2023-05-07T06:47:37.494Z,13.43
2023-05-07T06:50:05.231Z,10.98
2023-05-07T06:52:33.020Z,13.40
2023-05-07T06:55:01.361Z,11.07
2023-05-07T06:57:28.894Z,9.98
2023-05-07T06:59:56.374Z,10.00
2023-05-07T07:02:23.979Z,12.73
2023-05-07T07:04:51.597Z,14.60
2023-05-07T07:07:19.161Z,9.88
2023-05-07T07:09:46.708Z,12.27
2023-05-07T07:12:14.149Z,13.27
2023-05-07T07:14:41.587Z,11.68
2023-05-07T07:17:09.097Z,10.48
2023-05-07T07:19:37.200Z,11.68
2023-05-07T07:22:04.789Z,10.07
2023-05-07T07:24:32.295Z,11.60
2023-05-07T07:26:59.736Z,8.25
2023-05-07T07:29:27.857Z,7.60
2023-05-07T07:31:55.493Z,7.38
2023-05-07T07:34:23.148Z,7.47
2023-05-07T07:36:50.568Z,13.15
2023-05-07T07:39:18.219Z,9.45
2023-05-07T07:41:45.652Z,7.22
2023-05-07T07:44:16.093Z,8.30
2023-05-07T07:46:44.034Z,11.73
2023-05-07T07:49:11.513Z,14.32
2023-05-07T07:51:39.125Z,11.70
2023-05-07T07:54:06.689Z,8.73
2023-05-07T07:56:37.407Z,6.72
2023-05-07T07:59:04.987Z,6.57
2023-05-07T08:01:32.981Z,8.75
2023-05-07T08:04:00.869Z,7.32
2023-05-07T08:06:28.478Z,5.35
2023-05-07T08:08:56.387Z,6.40
2023-05-07T08:11:24.076Z,6.32
2023-05-07T08:13:51.818Z,5.05
2023-05-07T08:16:20.096Z,4.68
2023-05-07T08:18:48.581Z,5.47
2023-05-07T08:21:16.279Z,8.18
2023-05-07T08:23:43.834Z,6.60
2023-05-07T08:26:11.304Z,7.05
2023-05-07T08:28:38.773Z,10.20
2023-05-07T08:31:06.409Z,7.10
2023-05-07T08:33:33.903Z,7.30
2023-05-07T08:36:01.326Z,8.68
2023-05-07T08:38:28.864Z,9.85
2023-05-07T08:40:56.662Z,5.18
2023-05-07T08:43:29.062Z,8.48
2023-05-07T08:45:58.735Z,8.63
2023-05-07T08:48:28.439Z,6.25
2023-05-07T08:50:56.180Z,7.15
2023-05-07T08:53:23.838Z,7.70
2023-05-07T08:55:51.508Z,7.13
2023-05-07T08:58:18.986Z,8.88
2023-05-07T09:00:47.985Z,7.75
2023-05-07T09:03:15.621Z,4.47
2023-05-07T09:05:44.924Z,6.35
2023-05-07T09:08:17.185Z,6.40
2023-05-07T09:10:45.799Z,5.50
2023-05-07T09:13:15.897Z,5.68
2023-05-07T09:15:43.448Z,4.90
2023-05-07T09:18:10.937Z,4.43
2023-05-07T09:20:39.344Z,4.88
2023-05-07T09:23:10.116Z,6.63
2023-05-07T09:25:38.434Z,5.28
2023-05-07T09:28:11.260Z,6.55
2023-05-07T09:30:38.816Z,5.40
2023-05-07T09:33:06.406Z,5.43
2023-05-07T09:35:33.928Z,6.03
2023-05-07T09:38:04.313Z,9.45
2023-05-07T09:40:32.632Z,6.35
2023-05-07T09:43:12.429Z,7.72
2023-05-07T09:45:40.304Z,6.75
2023-05-07T09:48:08.570Z,9.80
2023-05-07T09:50:51.441Z,7.22
2023-05-07T09:53:19.093Z,8.77
2023-05-07T09:55:47.176Z,8.98
2023-05-07T09:58:17.583Z,6.10
2023-05-07T10:00:45.573Z,8.70
2023-05-07T10:03:14.139Z,5.75
2023-05-07T10:05:43.589Z,6.00
2023-05-07T10:08:11.775Z,4.57
2023-05-07T10:10:39.607Z,5.30
2023-05-07T10:13:11.367Z,4.03
2023-05-07T10:15:38.954Z,5.70
2023-05-07T10:18:07.724Z,5.32
2023-05-07T10:20:37.648Z,6.53
2023-05-07T10:23:07.054Z,4.85
2023-05-07T10:25:34.800Z,4.82
2023-05-07T10:28:07.805Z,5.35
2023-05-07T10:30:47.593Z,6.00
2023-05-07T10:33:18.155Z,6.28
2023-05-07T10:35:47.923Z,5.45
2023-05-07T10:38:18.225Z,3.65
2023-05-07T10:40:47.928Z,2.53
2023-05-07T10:43:15.877Z,5.20
2023-05-07T10:45:43.464Z,3.80
2023-05-07T10:50:44.821Z,5.25
2023-05-07T10:53:18.067Z,3.22
2023-05-07T10:55:53.770Z,4.30
2023-05-07T10:58:33.022Z,6.35
2023-05-07T11:01:02.515Z,5.05
2023-05-07T11:03:30.804Z,9.57
2023-05-07T11:06:15.667Z,6.80
2023-05-07T11:08:58.631Z,4.40
2023-05-07T11:11:47.669Z,3.00
2023-05-07T11:14:35.962Z,3.60
2023-05-07T11:17:06.420Z,5.88
2023-05-07T11:19:53.450Z,6.22
2023-05-07T11:22:33.061Z,2.47
2023-05-07T11:25:04.897Z,3.28
2023-05-07T11:27:32.736Z,3.13
2023-05-07T11:30:02.236Z,4.00
2023-05-07T11:32:31.977Z,3.80
2023-05-07T11:35:01.727Z,2.42
2023-05-07T11:37:31.039Z,6.15
2023-05-07T11:40:06.638Z,4.95
2023-05-07T11:42:36.825Z,5.38
2023-05-07T11:45:05.594Z,3.38
2023-05-07T11:47:33.715Z,4.97
2023-05-07T11:50:09.104Z,4.40
2023-05-07T11:52:37.572Z,5.95
2023-05-07T11:55:05.853Z,6.43
2023-05-07T11:57:35.600Z,3.55
2023-05-07T12:00:05.764Z,2.63
2023-05-07T12:02:33.646Z,3.95
2023-05-07T12:05:02.123Z,6.15
2023-05-07T12:07:29.683Z,4.80
2023-05-07T12:09:57.240Z,5.28
2023-05-07T12:12:25.006Z,5.07
2023-05-07T12:14:53.276Z,5.25
2023-05-07T12:17:20.839Z,6.80
2023-05-07T12:19:48.668Z,4.10
2023-05-07T12:22:16.321Z,4.40
2023-05-07T12:25:10.572Z,3.50
2023-05-07T12:27:40.170Z,4.80
2023-05-07T12:30:10.955Z,7.40
2023-05-07T12:32:38.630Z,6.15
2023-05-07T12:35:07.986Z,3.85
2023-05-07T12:37:37.234Z,4.53
2023-05-07T12:40:09.175Z,3.50
2023-05-07T12:42:41.076Z,2.75
2023-05-07T12:45:13.225Z,6.32
2023-05-07T12:47:44.721Z,5.45
2023-05-07T12:50:12.774Z,2.65
2023-05-07T12:52:40.548Z,4.85
2023-05-07T12:55:09.382Z,5.47
2023-05-07T12:57:41.582Z,6.72
2023-05-07T13:00:12.581Z,5.07
2023-05-07T13:02:41.849Z,2.45
2023-05-07T13:05:10.117Z,3.45
2023-05-07T13:07:38.639Z,3.20
2023-05-07T13:10:06.766Z,3.78
2023-05-07T13:12:34.254Z,2.78
2023-05-07T13:15:01.792Z,3.92
2023-05-07T13:17:29.312Z,3.88
2023-05-07T13:19:56.833Z,4.82
2023-05-07T13:22:24.495Z,1.77
2023-05-07T13:24:52.114Z,4.15
2023-05-07T13:27:20.663Z,2.55
2023-05-07T13:29:48.226Z,4.95
2023-05-07T13:32:15.805Z,3.72
2023-05-07T13:34:43.420Z,3.47
2023-05-07T13:37:11.624Z,2.58
2023-05-07T13:39:39.669Z,5.55
2023-05-07T13:42:07.142Z,2.55
2023-05-07T13:44:34.902Z,3.78
2023-05-07T13:47:03.003Z,2.90
2023-05-07T13:49:30.835Z,2.88
2023-05-07T13:51:58.526Z,4.93
2023-05-07T13:54:25.992Z,3.85
2023-05-07T13:56:53.499Z,5.03
2023-05-07T13:59:21.247Z,4.13
2023-05-07T14:01:49.127Z,5.30
2023-05-07T14:04:16.561Z,3.70
2023-05-07T14:06:44.070Z,4.45
2023-05-07T14:09:13.338Z,6.82
2023-05-07T14:11:41.071Z,5.07
2023-05-07T14:14:08.601Z,2.92
2023-05-07T14:16:36.208Z,4.53
2023-05-07T14:19:03.894Z,3.67
2023-05-07T14:21:32.112Z,3.05
2023-05-07T14:24:01.084Z,2.42
2023-05-07T14:26:28.831Z,5.70
2023-05-07T14:28:58.540Z,3.60
2023-05-07T14:31:26.560Z,2.90
2023-05-07T14:33:54.670Z,3.90
2023-05-07T14:36:24.037Z,3.92
2023-05-07T14:38:51.522Z,2.55
2023-05-07T14:41:19.031Z,4.88
2023-05-07T14:43:51.131Z,2.75
2023-05-07T14:46:19.841Z,6.82
2023-05-07T14:48:47.403Z,7.10
2023-05-07T14:51:15.457Z,5.13
2023-05-07T14:53:43.239Z,3.83
2023-05-07T14:56:11.007Z,3.13
2023-05-07T14:58:39.191Z,3.10
2023-05-07T15:01:06.659Z,3.72
2023-05-07T15:03:34.253Z,3.42
2023-05-07T15:06:03.607Z,3.15
2023-05-07T15:08:31.382Z,4.88
2023-05-07T15:10:58.990Z,5.55
2023-05-07T15:13:26.729Z,3.95
2023-05-07T15:15:54.586Z,3.83
2023-05-07T15:18:22.827Z,7.63
2023-05-07T15:20:50.672Z,4.40
2023-05-07T15:23:18.209Z,3.47
2023-05-07T15:25:46.852Z,3.45
2023-05-07T15:28:15.891Z,4.45
2023-05-07T15:30:43.452Z,4.15
2023-05-07T15:33:10.896Z,2.75
2023-05-07T15:35:38.947Z,4.93
2023-05-07T15:38:06.564Z,2.95
2023-05-07T15:40:36.347Z,2.58
2023-05-07T15:43:03.890Z,3.58
2023-05-07T15:45:31.550Z,4.47
2023-05-07T15:47:59.386Z,4.22
2023-05-07T15:50:27.661Z,4.60
2023-05-07T15:52:55.125Z,3.47
2023-05-07T15:55:22.813Z,3.97
2023-05-07T15:57:50.468Z,7.63
2023-05-07T16:00:19.234Z,4.43
2023-05-07T16:02:46.968Z,4.03
2023-05-07T16:05:14.836Z,3.80
2023-05-07T16:07:44.572Z,4.68
2023-05-07T16:10:12.475Z,3.63
2023-05-07T16:12:40.139Z,5.03
2023-05-07T16:15:08.738Z,5.15
2023-05-07T16:17:36.302Z,4.75
2023-05-07T16:20:06.610Z,4.10
2023-05-07T16:22:34.047Z,4.70
2023-05-07T16:25:02.673Z,3.95
2023-05-07T16:27:30.275Z,4.20
2023-05-07T16:29:57.750Z,4.68
2023-05-07T16:32:25.274Z,5.35
2023-05-07T16:34:52.807Z,2.78
2023-05-07T16:37:21.546Z,3.05
2023-05-07T16:39:49.024Z,3.78
2023-05-07T16:42:16.539Z,4.20
2023-05-07T16:44:44.001Z,2.65
2023-05-07T16:47:11.624Z,4.82
2023-05-07T16:49:39.182Z,3.78
2023-05-07T16:52:07.562Z,6.78
2023-05-07T16:54:37.074Z,4.90
2023-05-07T16:57:04.606Z,3.97
2023-05-07T16:59:33.522Z,5.93
2023-05-07T17:02:01.067Z,4.80
2023-05-07T17:04:30.023Z,3.75
2023-05-07T17:06:57.844Z,4.05
2023-05-07T17:09:25.442Z,6.50
2023-05-07T17:11:52.930Z,4.25
2023-05-07T17:14:20.453Z,5.10
2023-05-07T17:16:47.948Z,5.47
2023-05-07T17:19:15.894Z,4.07
2023-05-07T17:21:43.392Z,3.85
2023-05-07T17:24:10.928Z,3.25
2023-05-07T17:26:39.702Z,5.10
2023-05-07T17:29:07.594Z,3.17
2023-05-07T17:31:35.129Z,4.50
2023-05-07T17:34:02.977Z,4.10
2023-05-07T17:36:30.436Z,7.53
2023-05-07T17:38:57.992Z,4.07
2023-05-07T17:41:25.828Z,4.10
2023-05-07T17:43:53.297Z,6.15
2023-05-07T17:46:21.135Z,6.25
2023-05-07T17:48:48.727Z,6.25
2023-05-07T17:51:16.227Z,5.85
2023-05-07T17:53:43.788Z,5.10
2023-05-07T17:56:12.011Z,8.73
2023-05-07T17:58:57.492Z,6.07
2023-05-07T18:01:27.160Z,6.40
2023-05-07T18:03:54.787Z,5.45
2023-05-07T18:06:23.367Z,6.60
2023-05-07T18:08:50.947Z,6.07
2023-05-07T18:11:18.399Z,5.95
2023-05-07T18:13:45.870Z,6.38
2023-05-07T18:16:15.105Z,6.55
2023-05-07T18:18:42.586Z,7.18
2023-05-07T18:21:15.365Z,6.95
2023-05-07T18:23:42.827Z,6.80
2023-05-07T18:26:10.317Z,6.57
2023-05-07T18:28:38.138Z,6.70
2023-05-07T18:31:05.701Z,7.40
2023-05-07T18:33:33.541Z,6.57
2023-05-07T18:36:01.208Z,6.97
2023-05-07T18:38:28.942Z,5.68
2023-05-07T18:41:04.554Z,6.93
2023-05-07T18:43:34.022Z,6.45
2023-05-07T18:46:03.140Z,8.80
2023-05-07T18:48:30.971Z,7.95
2023-05-07T18:50:58.513Z,7.68
2023-05-07T18:53:26.047Z,6.57
2023-05-07T18:55:53.592Z,7.22
2023-05-07T18:58:21.088Z,6.15
2023-05-07T19:00:49.338Z,8.57
2023-05-07T19:03:17.559Z,7.13
2023-05-07T19:05:46.018Z,7.78
2023-05-07T19:08:13.808Z,6.30
2023-05-07T19:10:41.454Z,5.55
2023-05-07T19:13:09.023Z,5.60
2023-05-07T19:15:36.704Z,6.63
2023-05-07T19:18:04.559Z,6.07
2023-05-07T19:20:32.062Z,10.82
2023-05-07T19:22:59.881Z,13.27
2023-05-07T19:25:27.435Z,10.65
2023-05-07T19:27:55.932Z,10.07
2023-05-07T19:30:23.647Z,11.13
2023-05-07T19:32:51.191Z,7.47
2023-05-07T19:35:18.784Z,8.68
2023-05-07T19:37:46.781Z,11.13
2023-05-07T19:40:14.979Z,7.10
2023-05-07T19:42:42.566Z,8.95
2023-05-07T19:45:10.917Z,7.75
2023-05-07T19:47:38.629Z,7.18
2023-05-07T19:50:06.896Z,7.43
2023-05-07T19:52:34.933Z,7.95
2023-05-07T19:55:02.472Z,8.10
2023-05-07T19:57:30.109Z,8.77
2023-05-07T19:59:58.074Z,8.25
2023-05-07T20:02:25.983Z,7.90
2023-05-07T20:04:55.272Z,8.18
2023-05-07T20:07:22.813Z,8.00
2023-05-07T20:09:50.437Z,7.20
2023-05-07T20:12:18.268Z,5.85
2023-05-07T20:14:45.909Z,9.52
2023-05-07T20:17:13.818Z,7.63
2023-05-07T20:19:41.261Z,6.32
2023-05-07T20:22:08.780Z,8.20
2023-05-07T20:24:39.542Z,7.47
2023-05-07T20:27:07.078Z,8.13
2023-05-07T20:29:34.747Z,7.93
2023-05-07T20:32:02.527Z,7.57
2023-05-07T20:34:30.038Z,7.57
2023-05-07T20:36:57.546Z,7.47
2023-05-07T20:39:25.021Z,11.48
2023-05-07T20:41:53.165Z,8.85
2023-05-07T20:44:20.838Z,8.75
2023-05-07T20:46:48.395Z,6.45
2023-05-07T20:49:16.651Z,7.25
2023-05-07T20:51:44.152Z,9.43
2023-05-07T20:54:11.768Z,9.30
2023-05-07T20:56:39.218Z,9.75
2023-05-07T20:59:06.788Z,8.55
2023-05-07T21:01:34.780Z,8.25
2023-05-07T21:04:02.941Z,8.25
2023-05-07T21:06:30.999Z,7.80
2023-05-07T21:08:58.456Z,9.38
2023-05-07T21:11:26.122Z,7.80
2023-05-07T21:13:53.896Z,7.90
2023-05-07T21:16:23.217Z,8.55
2023-05-07T21:18:51.195Z,9.77
2023-05-07T21:21:19.319Z,9.00
2023-05-07T21:23:47.264Z,9.57
2023-05-07T21:26:19.521Z,7.65
2023-05-07T21:28:47.699Z,8.68
2023-05-07T21:31:15.608Z,9.57
2023-05-07T21:33:44.281Z,8.77
2023-05-07T21:36:12.014Z,8.10
2023-05-07T21:38:40.274Z,10.85
2023-05-07T21:41:07.888Z,8.73
2023-05-07T21:43:35.635Z,7.78
2023-05-07T21:46:07.588Z,8.65
2023-05-07T21:48:35.219Z,9.27
2023-05-07T21:51:04.518Z,9.43
2023-05-07T21:53:32.163Z,9.95
2023-05-07T21:56:05.438Z,11.70
2023-05-07T21:58:33.002Z,9.45
2023-05-07T22:01:01.445Z,7.18
2023-05-07T22:03:29.172Z,8.57
2023-05-07T22:05:56.990Z,8.95
2023-05-07T22:08:24.630Z,10.02
2023-05-07T22:10:52.274Z,9.35
2023-05-07T22:13:19.801Z,10.15
2023-05-07T22:15:56.618Z,8.00
2023-05-07T22:18:26.239Z,8.65
2023-05-07T22:20:53.907Z,9.95
2023-05-07T22:23:21.380Z,12.13
2023-05-07T22:25:48.942Z,8.52
2023-05-07T22:28:16.541Z,10.27
2023-05-07T22:30:44.219Z,9.40
2023-05-07T22:33:11.701Z,9.25
2023-05-07T22:35:39.248Z,9.25
2023-05-07T22:38:06.773Z,10.98
2023-05-07T22:40:34.247Z,9.68
2023-05-07T22:43:01.766Z,11.43
2023-05-07T22:45:29.258Z,12.02
2023-05-07T22:47:56.759Z,10.23
2023-05-07T22:50:24.353Z,8.70
2023-05-07T22:52:51.769Z,10.80
2023-05-07T22:55:19.588Z,9.70
2023-05-07T22:57:47.242Z,9.95
2023-05-07T23:00:15.394Z,10.20
2023-05-07T23:02:43.428Z,9.90
2023-05-07T23:05:11.041Z,10.90
2023-05-07T23:07:38.596Z,11.43
2023-05-07T23:10:06.721Z,9.57
2023-05-07T23:12:34.485Z,10.82
2023-05-07T23:15:02.046Z,11.88
2023-05-07T23:17:29.918Z,13.30
2023-05-07T23:19:57.681Z,12.18
2023-05-07T23:22:25.274Z,11.15
2023-05-07T23:24:52.770Z,12.13
2023-05-07T23:27:20.337Z,14.52
2023-05-07T23:29:47.891Z,14.55
2023-05-07T23:32:15.385Z,13.95
2023-05-07T23:34:43.098Z,14.43
2023-05-07T23:37:11.221Z,16.63
2023-05-07T23:39:38.770Z,16.45
2023-05-07T23:42:06.692Z,16.85
2023-05-07T23:44:34.251Z,16.67
2023-05-07T23:47:01.820Z,17.83
2023-05-07T23:49:29.417Z,19.80
2023-05-07T23:51:56.908Z,18.80
2023-05-07T23:54:24.443Z,16.13
2023-05-07T23:56:52.010Z,16.42
2023-05-07T23:59:19.531Z,19.10
